createdAt,value
2023-01-05T00:01:45.581Z,3.67
2023-01-05T00:04:12.511Z,2.22
2023-01-05T00:06:39.608Z,1.85
2023-01-05T00:09:07.354Z,1.92
2023-01-05T00:11:52.250Z,1.83
2023-01-05T00:14:41.306Z,1.98
2023-01-05T00:17:29.582Z,1.40
2023-01-05T00:20:14.457Z,1.27
2023-01-05T00:22:49.372Z,1.48
2023-01-05T00:25:18.252Z,1.73
2023-01-05T00:27:46.293Z,1.98
2023-01-05T00:30:15.196Z,1.10
2023-01-05T00:32:42.692Z,1.65
2023-01-05T00:35:10.410Z,1.38
2023-01-05T00:37:39.990Z,0.70
2023-01-05T00:40:08.191Z,1.48
2023-01-05T00:42:34.660Z,1.30
2023-01-05T00:45:00.979Z,1.27
2023-01-05T00:47:27.426Z,0.75
2023-01-05T00:49:53.817Z,0.88
2023-01-05T00:52:20.270Z,0.63
2023-01-05T00:54:46.648Z,0.80
2023-01-05T00:57:14.076Z,0.77
2023-01-05T00:59:40.894Z,1.55
2023-01-05T01:02:07.678Z,1.13
2023-01-05T01:04:34.846Z,1.17
2023-01-05T01:07:02.232Z,1.23
2023-01-05T01:09:28.761Z,0.93
2023-01-05T01:11:55.158Z,1.35
2023-01-05T01:14:21.532Z,1.13
2023-01-05T01:16:48.040Z,1.00
2023-01-05T01:19:17.849Z,0.90
2023-01-05T01:21:44.673Z,1.42
2023-01-05T01:24:16.867Z,1.15
2023-01-05T01:26:43.249Z,1.77
2023-01-05T01:29:13.033Z,1.85
2023-01-05T01:31:39.436Z,1.45
2023-01-05T01:34:05.888Z,0.77
2023-01-05T01:36:32.323Z,1.92
2023-01-05T01:39:00.423Z,1.15
2023-01-05T01:41:26.983Z,1.33
2023-01-05T01:43:55.543Z,0.88
2023-01-05T01:46:23.723Z,1.90
2023-01-05T01:48:55.998Z,0.55
2023-01-05T01:51:38.916Z,2.03
2023-01-05T01:54:07.534Z,2.33
2023-01-05T01:56:37.923Z,1.45
2023-01-05T01:59:04.312Z,1.10
2023-01-05T02:01:30.975Z,2.97
2023-01-05T02:03:58.085Z,2.88
2023-01-05T02:06:24.430Z,1.80
2023-01-05T02:08:50.866Z,1.77
2023-01-05T02:11:25.028Z,2.78
2023-01-05T02:16:43.252Z,0.93
2023-01-05T02:19:47.121Z,3.03
2023-01-05T02:22:44.188Z,2.90
2023-01-05T02:25:43.353Z,3.05
2023-01-05T02:28:31.302Z,3.83
2023-01-05T02:31:19.546Z,3.40
2023-01-05T02:34:00.283Z,5.97
2023-01-05T02:36:50.150Z,8.10
2023-01-05T02:39:19.120Z,13.52
2023-01-05T02:41:57.323Z,6.70
2023-01-05T02:44:23.725Z,9.00
2023-01-05T02:47:04.900Z,7.18
2023-01-05T02:49:33.344Z,10.63
2023-01-05T02:52:00.991Z,15.43
2023-01-05T02:54:32.008Z,8.57
2023-01-05T02:57:20.289Z,14.45
2023-01-05T02:59:53.343Z,11.07
2023-01-05T03:02:25.020Z,12.93
2023-01-05T03:04:52.800Z,13.15
2023-01-05T03:07:23.895Z,10.70
2023-01-05T03:09:50.398Z,10.98
2023-01-05T03:12:42.702Z,9.43
2023-01-05T03:15:13.890Z,8.15
2023-01-05T03:17:45.762Z,9.15
2023-01-05T03:20:16.626Z,8.70
2023-01-05T03:23:02.867Z,9.52
2023-01-05T03:25:47.876Z,12.93
2023-01-05T03:28:36.123Z,12.10
2023-01-05T03:31:26.318Z,13.40
2023-01-05T03:34:14.319Z,8.70
2023-01-05T03:36:46.231Z,9.70
2023-01-05T03:39:14.061Z,7.30
2023-01-05T03:41:40.426Z,12.02
2023-01-05T03:44:07.172Z,12.35
2023-01-05T03:46:33.654Z,12.07
2023-01-05T03:49:00.076Z,12.52
2023-01-05T03:51:26.463Z,8.40
2023-01-05T03:53:52.857Z,15.23
2023-01-05T03:56:19.242Z,14.10
2023-01-05T03:58:45.616Z,11.40
2023-01-05T04:01:12.088Z,11.45
2023-01-05T04:03:40.594Z,10.38
2023-01-05T04:06:07.278Z,8.27
2023-01-05T04:08:33.693Z,9.20
2023-01-05T04:11:12.866Z,12.80
2023-01-05T04:13:39.339Z,10.40
2023-01-05T04:16:06.033Z,8.55
2023-01-05T04:18:32.571Z,11.88
2023-01-05T04:20:58.900Z,8.45
2023-01-05T04:23:25.263Z,13.43
2023-01-05T04:25:51.619Z,6.10
2023-01-05T04:28:17.992Z,7.68
2023-01-05T04:30:45.134Z,9.20
2023-01-05T04:33:11.855Z,11.15
2023-01-05T04:35:38.261Z,12.88
2023-01-05T04:38:04.604Z,11.55
2023-01-05T04:40:31.026Z,9.85
2023-01-05T04:42:57.387Z,11.73
2023-01-05T04:45:23.765Z,10.55
2023-01-05T04:47:51.585Z,12.27
2023-01-05T04:50:18.394Z,10.25
2023-01-05T04:52:45.040Z,10.68
2023-01-05T04:55:11.733Z,10.93
2023-01-05T04:57:38.120Z,11.43
2023-01-05T05:00:05.117Z,11.70
2023-01-05T05:02:31.846Z,13.15
2023-01-05T05:04:58.312Z,11.20
2023-01-05T05:07:24.716Z,9.32
2023-01-05T05:09:51.077Z,14.68
2023-01-05T05:12:20.531Z,15.25
2023-01-05T05:14:50.200Z,9.75
2023-01-05T05:17:17.025Z,8.55
2023-01-05T05:19:43.507Z,13.07
2023-01-05T05:22:09.974Z,12.95
2023-01-05T05:24:36.296Z,8.18
2023-01-05T05:27:02.941Z,14.90
2023-01-05T05:29:29.311Z,15.60
2023-01-05T05:31:55.689Z,14.77
2023-01-05T05:34:22.121Z,13.15
2023-01-05T05:36:48.506Z,9.25
2023-01-05T05:39:15.556Z,8.10
2023-01-05T05:41:42.056Z,7.15
2023-01-05T05:44:08.606Z,9.70
2023-01-05T05:46:35.246Z,10.00
2023-01-05T05:49:01.678Z,12.68
2023-01-05T05:51:28.096Z,14.55
2023-01-05T05:53:54.533Z,10.15
2023-01-05T05:56:20.871Z,14.98
2023-01-05T05:58:47.223Z,12.40
2023-01-05T06:01:13.702Z,14.35
2023-01-05T06:03:40.152Z,13.35
2023-01-05T06:06:06.852Z,13.93
2023-01-05T06:08:33.183Z,14.52
2023-01-05T06:10:59.573Z,15.88
2023-01-05T06:13:26.229Z,10.68
2023-01-05T06:15:52.652Z,13.57
2023-01-05T06:18:19.044Z,13.55
2023-01-05T06:20:45.935Z,12.45
2023-01-05T06:23:12.413Z,17.38
2023-01-05T06:25:38.826Z,16.15
2023-01-05T06:28:05.220Z,11.75
2023-01-05T06:30:31.645Z,11.68
2023-01-05T06:32:58.147Z,14.40
2023-01-05T06:35:24.527Z,11.38
2023-01-05T06:37:50.893Z,15.85
2023-01-05T06:40:17.299Z,18.77
2023-01-05T06:42:43.708Z,13.10
2023-01-05T06:45:12.412Z,17.38
2023-01-05T06:47:40.633Z,14.63
2023-01-05T06:50:07.927Z,14.60
2023-01-05T06:52:40.014Z,11.82
2023-01-05T06:55:10.785Z,11.95
2023-01-05T06:57:37.467Z,12.80
2023-01-05T07:00:06.509Z,15.15
2023-01-05T07:02:33.050Z,10.20
2023-01-05T07:04:59.461Z,14.35
2023-01-05T07:07:26.032Z,14.88
2023-01-05T07:09:52.400Z,14.75
2023-01-05T07:12:18.811Z,12.95
2023-01-05T07:14:45.541Z,15.88
2023-01-05T07:17:13.140Z,18.33
2023-01-05T07:19:40.194Z,12.55
2023-01-05T07:22:06.775Z,15.32
2023-01-05T07:24:33.164Z,14.60
2023-01-05T07:27:03.070Z,10.02
2023-01-05T07:29:34.064Z,14.32
2023-01-05T07:32:00.511Z,10.80
2023-01-05T07:34:26.916Z,19.73
2023-01-05T07:36:53.249Z,19.27
2023-01-05T07:39:19.639Z,16.38
2023-01-05T07:41:46.072Z,9.65
2023-01-05T07:44:12.589Z,12.35
2023-01-05T07:46:38.985Z,11.57
2023-01-05T07:49:05.441Z,13.93
2023-01-05T07:51:31.874Z,9.27
2023-01-05T07:53:58.463Z,16.25
2023-01-05T07:56:24.772Z,11.32
2023-01-05T07:58:51.107Z,18.27
2023-01-05T08:01:20.115Z,9.13
2023-01-05T08:03:46.775Z,12.07
2023-01-05T08:06:15.200Z,11.05
2023-01-05T08:08:41.689Z,13.30
2023-01-05T08:11:09.611Z,12.38
2023-01-05T08:13:55.018Z,10.40
2023-01-05T08:16:22.187Z,10.68
2023-01-05T08:18:48.593Z,11.60
2023-01-05T08:21:14.972Z,14.98
2023-01-05T08:23:41.371Z,14.52
2023-01-05T08:26:16.184Z,10.98
2023-01-05T08:28:43.332Z,14.20
2023-01-05T08:31:16.206Z,13.57
2023-01-05T08:33:43.179Z,12.52
2023-01-05T08:36:11.417Z,12.40
2023-01-05T08:38:38.002Z,13.05
2023-01-05T08:41:04.927Z,12.27
2023-01-05T08:43:31.335Z,7.57
2023-01-05T08:45:57.770Z,9.75
2023-01-05T08:48:24.244Z,16.42
2023-01-05T08:50:50.645Z,7.10
2023-01-05T08:53:17.027Z,13.85
2023-01-05T08:55:43.564Z,6.88
2023-01-05T08:58:09.899Z,7.18
2023-01-05T09:00:36.283Z,8.90
2023-01-05T09:03:02.839Z,11.10
2023-01-05T09:05:29.315Z,11.48
2023-01-05T09:07:55.685Z,11.57
2023-01-05T09:10:22.129Z,8.93
2023-01-05T09:12:49.177Z,7.15
2023-01-05T09:15:15.614Z,8.73
2023-01-05T09:17:42.019Z,10.95
2023-01-05T09:20:08.905Z,9.68
2023-01-05T09:22:36.140Z,11.45
2023-01-05T09:25:03.423Z,8.80
2023-01-05T09:27:29.837Z,13.05
2023-01-05T09:29:56.180Z,12.73
2023-01-05T09:32:24.015Z,12.00
2023-01-05T09:34:50.374Z,10.75
2023-01-05T09:37:16.756Z,11.85
2023-01-05T09:39:43.108Z,12.43
2023-01-05T09:42:14.909Z,8.32
2023-01-05T09:44:52.698Z,14.57
2023-01-05T09:47:29.488Z,10.90
2023-01-05T09:49:57.891Z,16.45
2023-01-05T09:52:24.789Z,19.88
2023-01-05T09:54:51.151Z,13.88
2023-01-05T09:57:20.510Z,12.63
2023-01-05T09:59:50.024Z,11.60
2023-01-05T10:02:36.877Z,13.73
2023-01-05T10:05:05.593Z,12.65
2023-01-05T10:07:40.656Z,9.32
2023-01-05T10:10:35.917Z,14.45
2023-01-05T10:13:03.435Z,8.40
2023-01-05T10:15:34.759Z,15.00
2023-01-05T10:18:09.753Z,13.10
2023-01-05T10:20:36.111Z,17.60
2023-01-05T10:23:33.081Z,14.43
2023-01-05T10:26:05.231Z,10.30
2023-01-05T10:28:46.938Z,15.35
2023-01-05T10:31:23.793Z,10.70
2023-01-05T10:34:11.485Z,13.48
2023-01-05T10:37:08.572Z,13.90
2023-01-05T10:39:52.472Z,10.70
2023-01-05T10:42:35.320Z,9.52
2023-01-05T10:45:03.447Z,10.43
2023-01-05T10:47:32.001Z,10.40
2023-01-05T10:49:59.171Z,12.55
2023-01-05T10:52:26.339Z,15.07
2023-01-05T10:54:57.784Z,14.88
2023-01-05T10:57:35.968Z,13.30
2023-01-05T11:00:11.013Z,12.45
2023-01-05T11:03:03.472Z,13.65
2023-01-05T11:05:36.697Z,11.98
2023-01-05T11:08:05.972Z,11.07
2023-01-05T11:10:38.079Z,12.77
2023-01-05T11:13:27.362Z,16.10
2023-01-05T11:15:56.164Z,15.05
2023-01-05T11:18:36.020Z,17.63
2023-01-05T11:21:19.583Z,16.15
2023-01-05T11:23:48.964Z,16.45
2023-01-05T11:26:19.557Z,20.58
2023-01-05T11:29:11.548Z,12.38
2023-01-05T11:31:43.013Z,21.08
2023-01-05T11:34:30.615Z,21.08
2023-01-05T11:37:07.810Z,17.58
2023-01-05T11:39:48.061Z,13.93
2023-01-05T11:42:36.217Z,15.02
2023-01-05T11:45:17.753Z,14.52
2023-01-05T11:47:49.416Z,16.15
2023-01-05T11:50:29.138Z,18.15
2023-01-05T11:52:58.501Z,18.23
2023-01-05T11:55:29.945Z,16.05
2023-01-05T11:58:17.898Z,18.00
2023-01-05T12:00:53.686Z,18.00
2023-01-05T12:03:32.177Z,13.38
2023-01-05T12:06:09.221Z,15.25
2023-01-05T12:08:55.589Z,11.30
2023-01-05T12:11:22.728Z,19.08
2023-01-05T12:14:18.323Z,17.70
2023-01-05T12:16:55.962Z,17.27
2023-01-05T12:19:53.336Z,19.58
2023-01-05T12:22:32.237Z,15.43
2023-01-05T12:25:09.811Z,12.98
2023-01-05T12:28:09.640Z,14.68
2023-01-05T12:34:13.246Z,16.25
2023-01-05T12:36:59.172Z,15.93
2023-01-05T12:39:44.511Z,14.15
2023-01-05T12:42:32.735Z,17.63
2023-01-05T12:45:33.125Z,18.20
2023-01-05T12:48:06.855Z,16.63
2023-01-05T12:50:43.385Z,13.15
2023-01-05T12:53:37.686Z,16.77
2023-01-05T12:56:45.129Z,14.00
2023-01-05T12:59:19.520Z,15.18
2023-01-05T13:02:08.621Z,19.70
2023-01-05T13:04:48.467Z,15.00
2023-01-05T13:07:24.726Z,13.30
2023-01-05T13:10:02.281Z,19.52
2023-01-05T13:12:30.700Z,14.20
2023-01-05T13:15:09.284Z,18.90
2023-01-05T13:17:38.117Z,13.88
2023-01-05T13:20:19.074Z,16.50
2023-01-05T13:22:47.004Z,10.02
2023-01-05T13:25:22.753Z,14.27
2023-01-05T13:27:49.149Z,15.40
2023-01-05T13:30:31.430Z,14.13
2023-01-05T13:33:21.467Z,13.23
2023-01-05T13:36:08.213Z,17.85
2023-01-05T13:38:56.123Z,16.00
2023-01-05T13:41:28.369Z,14.07
2023-01-05T13:44:45.368Z,13.75
2023-01-05T13:47:46.243Z,12.80
2023-01-05T13:50:21.130Z,15.00
2023-01-05T13:53:10.690Z,18.15
2023-01-05T13:55:43.284Z,16.42
2023-01-05T13:58:42.035Z,18.02
2023-01-05T14:01:12.973Z,15.70
2023-01-05T14:03:41.517Z,13.23
2023-01-05T14:06:17.822Z,14.13
2023-01-05T14:08:58.217Z,12.48
2023-01-05T14:11:26.426Z,13.75
2023-01-05T14:13:58.365Z,14.13
2023-01-05T14:16:37.529Z,14.93
2023-01-05T14:19:22.460Z,13.07
2023-01-05T14:22:00.256Z,13.88
2023-01-05T14:24:34.256Z,14.95
2023-01-05T14:27:05.039Z,14.50
2023-01-05T14:29:46.702Z,12.45
2023-01-05T14:32:25.673Z,13.73
2023-01-05T14:37:37.275Z,9.98
2023-01-05T14:40:25.444Z,17.95
2023-01-05T14:42:51.846Z,11.10
2023-01-05T14:45:29.903Z,15.93
2023-01-05T14:48:08.764Z,20.02
2023-01-05T14:50:38.891Z,17.92
2023-01-05T14:53:20.721Z,10.32
2023-01-05T14:55:57.374Z,10.95
2023-01-05T14:58:36.160Z,13.30
2023-01-05T15:03:47.915Z,15.63
2023-01-05T15:06:58.699Z,16.67
2023-01-05T15:09:37.059Z,14.00
2023-01-05T15:12:22.536Z,16.17
2023-01-05T15:15:00.576Z,16.40
2023-01-05T15:17:55.191Z,15.88
2023-01-05T15:20:33.784Z,22.17
2023-01-05T15:23:18.172Z,20.35
2023-01-05T15:26:21.835Z,17.92
2023-01-05T15:29:46.637Z,17.67
2023-01-05T15:32:19.076Z,13.52
2023-01-05T15:34:54.757Z,19.90
2023-01-05T15:37:38.551Z,17.30
2023-01-05T15:40:09.102Z,15.57
2023-01-05T15:42:43.708Z,24.90
2023-01-05T15:45:19.178Z,15.25
2023-01-05T15:47:46.629Z,14.43
2023-01-05T15:50:24.164Z,16.55
2023-01-05T15:52:56.434Z,18.48
2023-01-05T15:55:23.143Z,19.33
2023-01-05T15:57:58.399Z,20.48
2023-01-05T16:00:27.703Z,16.02
2023-01-05T16:02:54.289Z,21.75
2023-01-05T16:05:23.518Z,14.27
2023-01-05T16:07:59.581Z,18.60
2023-01-05T16:10:35.253Z,16.75
2023-01-05T16:13:11.966Z,13.75
2023-01-05T16:15:40.719Z,13.43
2023-01-05T16:18:12.194Z,18.02
2023-01-05T16:20:39.860Z,13.50
2023-01-05T16:23:15.129Z,20.13
2023-01-05T16:25:50.396Z,20.23
2023-01-05T16:28:18.713Z,20.23
2023-01-05T16:30:46.860Z,15.27
2023-01-05T16:33:35.745Z,16.58
2023-01-05T16:36:21.912Z,19.02
2023-01-05T16:38:48.622Z,18.75
2023-01-05T16:41:21.850Z,17.15
2023-01-05T16:43:55.343Z,27.63
2023-01-05T16:46:26.132Z,20.88
2023-01-05T16:48:59.682Z,16.13
2023-01-05T16:51:31.783Z,15.10
2023-01-05T16:54:16.776Z,17.42
2023-01-05T16:57:01.469Z,18.05
2023-01-05T16:59:32.765Z,14.82
2023-01-05T17:01:59.349Z,21.75
2023-01-05T17:04:25.722Z,17.23
2023-01-05T17:06:52.394Z,18.80
2023-01-05T17:09:28.460Z,17.95
2023-01-05T17:11:55.280Z,21.77
2023-01-05T17:14:22.668Z,19.17
2023-01-05T17:16:49.186Z,15.85
2023-01-05T17:19:21.220Z,21.98
2023-01-05T17:21:56.956Z,22.83
2023-01-05T17:24:23.748Z,19.27
2023-01-05T17:26:50.145Z,21.25
2023-01-05T17:29:21.596Z,19.00
2023-01-05T17:31:48.053Z,24.52
2023-01-05T17:34:14.705Z,19.75
2023-01-05T17:36:41.513Z,15.25
2023-01-05T17:39:07.905Z,21.20
2023-01-05T17:44:05.713Z,26.52
2023-01-05T17:46:33.679Z,19.05
2023-01-05T17:49:01.064Z,19.77
2023-01-05T17:51:28.554Z,16.50
2023-01-05T17:53:56.367Z,20.40
2023-01-05T17:56:23.120Z,21.50
2023-01-05T17:58:49.526Z,22.25
2023-01-05T18:01:16.356Z,26.85
2023-01-05T18:03:42.802Z,19.92
2023-01-05T18:06:09.347Z,21.15
2023-01-05T18:08:36.356Z,21.83
2023-01-05T18:11:07.216Z,14.73
2023-01-05T18:13:34.569Z,20.77
2023-01-05T18:16:06.591Z,19.98
2023-01-05T18:21:01.352Z,16.08
2023-01-05T18:23:27.729Z,17.85
2023-01-05T18:25:57.200Z,14.90
2023-01-05T18:28:23.582Z,21.42
2023-01-05T18:30:50.006Z,20.50
2023-01-05T18:33:17.640Z,20.48
2023-01-05T18:35:44.094Z,26.17
2023-01-05T18:38:10.475Z,21.27
2023-01-05T18:40:37.725Z,19.25
2023-01-05T18:43:04.097Z,19.40
2023-01-05T18:45:39.269Z,22.98
2023-01-05T18:48:06.163Z,22.33
2023-01-05T18:50:32.579Z,22.55
2023-01-05T18:52:58.925Z,17.75
2023-01-05T18:55:26.642Z,17.73
2023-01-05T18:57:52.977Z,18.67
2023-01-05T19:00:19.488Z,17.00
2023-01-05T19:02:45.907Z,10.95
2023-01-05T19:05:12.322Z,14.35
2023-01-05T19:07:39.626Z,15.55
2023-01-05T19:10:06.222Z,16.73
2023-01-05T19:12:32.630Z,19.85
2023-01-05T19:14:58.974Z,16.52
2023-01-05T19:17:25.413Z,12.00
2023-01-05T19:19:51.745Z,19.48
2023-01-05T19:22:18.273Z,18.70
2023-01-05T19:24:44.635Z,21.63
2023-01-05T19:27:11.025Z,21.08
2023-01-05T19:29:37.401Z,18.77
2023-01-05T19:32:03.803Z,13.00
2023-01-05T19:34:30.151Z,19.83
2023-01-05T19:36:56.569Z,14.02
2023-01-05T19:39:22.943Z,14.68
2023-01-05T19:41:51.316Z,16.73
2023-01-05T19:44:25.821Z,20.42
2023-01-05T19:46:53.236Z,13.02
2023-01-05T19:49:21.950Z,14.52
2023-01-05T19:51:48.729Z,11.98
2023-01-05T19:54:15.537Z,13.50
2023-01-05T19:56:42.670Z,16.75
2023-01-05T19:59:17.928Z,17.60
2023-01-05T20:01:44.550Z,12.40
2023-01-05T20:04:11.173Z,17.10
2023-01-05T20:06:40.743Z,18.23
2023-01-05T20:09:10.413Z,17.23
2023-01-05T20:11:43.494Z,15.20
2023-01-05T20:14:16.847Z,12.82
2023-01-05T20:16:46.860Z,14.43
2023-01-05T20:19:13.571Z,12.95
2023-01-05T20:21:39.938Z,15.70
2023-01-05T20:24:17.440Z,14.32
2023-01-05T20:26:45.645Z,15.05
2023-01-05T20:29:13.377Z,12.10
2023-01-05T20:31:45.584Z,12.98
2023-01-05T20:34:17.789Z,21.13
2023-01-05T20:36:44.779Z,12.43
2023-01-05T20:39:13.291Z,14.32
2023-01-05T20:41:45.375Z,16.52
2023-01-05T20:44:12.746Z,16.15
2023-01-05T20:46:43.495Z,15.95
2023-01-05T20:49:10.373Z,19.45
2023-01-05T20:51:36.840Z,12.13
2023-01-05T20:54:05.674Z,16.85
2023-01-05T20:56:38.274Z,20.35
2023-01-05T20:59:10.845Z,14.32
2023-01-05T21:01:37.419Z,12.48
2023-01-05T21:04:05.020Z,13.60
2023-01-05T21:06:31.711Z,13.55
2023-01-05T21:08:58.177Z,14.55
2023-01-05T21:11:26.020Z,12.25
2023-01-05T21:13:54.383Z,16.30
2023-01-05T21:16:26.525Z,14.90
2023-01-05T21:18:53.739Z,11.85
2023-01-05T21:21:21.466Z,15.48
2023-01-05T21:23:49.490Z,12.27
2023-01-05T21:26:16.227Z,14.20
2023-01-05T21:28:43.390Z,13.15
2023-01-05T21:31:15.425Z,16.02
2023-01-05T21:33:42.270Z,17.08
2023-01-05T21:36:13.896Z,15.80
2023-01-05T21:39:00.718Z,10.50
2023-01-05T21:41:45.569Z,12.40
2023-01-05T21:44:13.484Z,15.07
2023-01-05T21:46:41.099Z,14.70
2023-01-05T21:49:08.353Z,13.70
2023-01-05T21:51:53.095Z,17.35
2023-01-05T21:54:38.423Z,14.15
2023-01-05T21:57:05.227Z,13.32
2023-01-05T21:59:31.898Z,15.65
2023-01-05T22:01:58.445Z,17.52
2023-01-05T22:04:25.102Z,17.13
2023-01-05T22:06:51.636Z,17.10
2023-01-05T22:09:18.140Z,17.88
2023-01-05T22:11:44.730Z,14.60
2023-01-05T22:14:11.156Z,14.00
2023-01-05T22:16:37.659Z,12.20
2023-01-05T22:19:04.333Z,18.33
2023-01-05T22:21:31.011Z,12.25
2023-01-05T22:23:57.572Z,14.43
2023-01-05T22:26:24.307Z,13.63
2023-01-05T22:28:53.407Z,12.13
2023-01-05T22:31:23.207Z,16.05
2023-01-05T22:33:52.081Z,15.23
2023-01-05T22:36:19.549Z,10.68
2023-01-05T22:38:46.959Z,13.93
2023-01-05T22:41:15.850Z,19.88
2023-01-05T22:43:43.045Z,14.15
2023-01-05T22:46:14.146Z,16.05
2023-01-05T22:48:43.685Z,14.80
2023-01-05T22:51:12.961Z,13.45
2023-01-05T22:53:39.954Z,16.70
2023-01-05T22:56:08.417Z,17.77
2023-01-05T22:58:35.100Z,12.68
2023-01-05T23:01:27.800Z,20.55
2023-01-05T23:03:59.041Z,14.07
2023-01-05T23:06:25.945Z,14.43
2023-01-05T23:08:53.518Z,16.13
2023-01-05T23:11:24.668Z,15.70
2023-01-05T23:13:52.116Z,23.38
2023-01-05T23:16:21.946Z,16.60
2023-01-05T23:18:49.647Z,16.80
2023-01-05T23:21:16.953Z,14.52
2023-01-05T23:23:44.131Z,17.70
2023-01-05T23:26:12.426Z,19.33
2023-01-05T23:28:41.582Z,20.58
2023-01-05T23:31:08.109Z,14.80
2023-01-05T23:33:43.848Z,19.35
2023-01-05T23:36:16.978Z,20.33
2023-01-05T23:38:43.617Z,18.42
2023-01-05T23:41:11.672Z,16.70
2023-01-05T23:43:39.120Z,15.48
2023-01-05T23:46:10.942Z,15.95
2023-01-05T23:48:38.190Z,15.43
2023-01-05T23:51:05.965Z,13.32
2023-01-05T23:53:32.359Z,15.82
2023-01-05T23:56:10.694Z,16.63
2023-01-05T23:58:37.369Z,24.27
